createdAt,value
2018-09-25T00:01:22.243Z,2.67
2018-09-25T00:03:55.739Z,2.33
2018-09-25T00:06:29.422Z,2.43
2018-09-25T00:09:02.923Z,2.50
2018-09-25T00:11:36.603Z,2.20
2018-09-25T00:14:10.260Z,2.07
2018-09-25T00:16:44.187Z,2.33
2018-09-25T00:19:17.762Z,2.67
2018-09-25T00:21:51.476Z,2.30
2018-09-25T00:24:24.878Z,2.40
2018-09-25T00:26:58.451Z,2.43
2018-09-25T00:29:32.055Z,2.40
2018-09-25T00:32:05.707Z,2.50
2018-09-25T00:34:39.231Z,2.10
2018-09-25T00:37:12.895Z,2.30
2018-09-25T00:39:46.333Z,2.37
2018-09-25T00:42:20.067Z,2.13
2018-09-25T00:44:53.721Z,2.43
2018-09-25T00:47:27.423Z,2.43
2018-09-25T00:50:00.944Z,1.70
2018-09-25T00:52:34.667Z,2.23
2018-09-25T00:55:08.300Z,2.37
2018-09-25T00:57:41.883Z,1.80
2018-09-25T01:00:15.488Z,2.47
2018-09-25T01:02:48.878Z,2.27
2018-09-25T01:05:22.812Z,1.80
2018-09-25T01:07:56.223Z,2.70
2018-09-25T01:10:29.753Z,2.20
2018-09-25T01:13:03.394Z,2.83
2018-09-25T01:15:37.054Z,2.70
2018-09-25T01:18:10.711Z,2.60
2018-09-25T01:20:44.382Z,2.37
2018-09-25T01:23:18.083Z,2.50
2018-09-25T01:25:51.668Z,2.07
2018-09-25T01:28:25.239Z,2.10
2018-09-25T01:30:58.861Z,2.67
2018-09-25T01:33:32.580Z,2.20
2018-09-25T01:36:06.431Z,2.17
2018-09-25T01:38:40.505Z,2.90
2018-09-25T01:41:13.896Z,2.20
2018-09-25T01:43:47.554Z,1.97
2018-09-25T01:46:21.100Z,1.60
2018-09-25T01:48:54.496Z,2.53
2018-09-25T01:51:27.947Z,2.60
2018-09-25T01:54:01.455Z,2.33
2018-09-25T01:56:35.164Z,1.70
2018-09-25T01:59:08.852Z,2.27
2018-09-25T02:01:42.440Z,2.03
2018-09-25T02:04:16.106Z,1.87
2018-09-25T02:06:49.770Z,2.70
2018-09-25T02:09:23.362Z,2.40
2018-09-25T02:11:57.203Z,1.90
2018-09-25T02:14:31.003Z,1.87
2018-09-25T02:17:04.688Z,2.33
2018-09-25T02:19:38.370Z,2.13
2018-09-25T02:22:11.999Z,1.60
2018-09-25T02:24:46.007Z,2.60
2018-09-25T02:27:19.698Z,2.70
2018-09-25T02:29:53.299Z,2.40
2018-09-25T02:32:26.827Z,2.37
2018-09-25T02:35:00.274Z,2.20
2018-09-25T02:37:33.987Z,2.47
2018-09-25T02:40:07.534Z,1.93
2018-09-25T02:42:41.108Z,2.00
2018-09-25T02:45:14.602Z,3.00
2018-09-25T02:47:48.255Z,2.27
2018-09-25T02:50:21.800Z,2.33
2018-09-25T02:52:55.383Z,2.10
2018-09-25T02:55:29.051Z,3.07
2018-09-25T02:58:02.488Z,2.20
2018-09-25T03:00:36.111Z,2.00
2018-09-25T03:03:09.575Z,1.87
2018-09-25T03:05:43.340Z,2.40
2018-09-25T03:08:17.007Z,2.83
2018-09-25T03:10:50.694Z,2.73
2018-09-25T03:13:24.507Z,2.70
2018-09-25T03:15:58.084Z,2.60
2018-09-25T03:18:31.791Z,2.20
2018-09-25T03:21:05.386Z,2.67
2018-09-25T03:23:39.045Z,1.80
2018-09-25T03:26:12.747Z,2.57
2018-09-25T03:28:46.418Z,2.40
2018-09-25T03:31:20.008Z,2.83
2018-09-25T03:33:53.590Z,2.90
2018-09-25T03:36:27.339Z,2.80
2018-09-25T03:39:01.021Z,2.10
2018-09-25T03:41:34.691Z,2.90
2018-09-25T03:44:08.224Z,2.67
2018-09-25T03:46:41.927Z,2.43
2018-09-25T03:49:15.632Z,3.10
2018-09-25T03:51:49.208Z,2.80
2018-09-25T03:54:22.797Z,2.17
2018-09-25T03:56:56.459Z,2.37
2018-09-25T03:59:30.073Z,2.23
2018-09-25T04:02:03.767Z,2.50
2018-09-25T04:04:37.327Z,2.90
2018-09-25T04:07:10.971Z,2.63
2018-09-25T04:09:44.663Z,2.60
2018-09-25T04:12:18.307Z,3.17
2018-09-25T04:14:51.807Z,3.30
2018-09-25T04:17:25.496Z,2.50
2018-09-25T04:19:58.995Z,2.63
2018-09-25T04:22:32.748Z,3.60
2018-09-25T04:25:06.279Z,3.53
2018-09-25T04:27:39.974Z,3.00
2018-09-25T04:30:13.639Z,3.10
2018-09-25T04:32:47.206Z,2.87
2018-09-25T04:35:20.695Z,2.43
2018-09-25T04:37:54.353Z,2.40
2018-09-25T04:40:28.157Z,4.17
2018-09-25T04:43:01.783Z,5.37
2018-09-25T04:45:35.407Z,7.40
2018-09-25T04:48:09.054Z,5.80
2018-09-25T04:50:42.811Z,4.53
2018-09-25T04:53:16.383Z,3.30
2018-09-25T04:55:49.942Z,3.63
2018-09-25T04:58:23.643Z,3.27
2018-09-25T05:00:57.322Z,3.40
2018-09-25T05:03:30.932Z,3.10
2018-09-25T05:06:04.679Z,3.27
2018-09-25T05:08:38.452Z,3.37
2018-09-25T05:11:12.138Z,3.90
2018-09-25T05:13:45.834Z,3.53
2018-09-25T05:16:19.347Z,4.47
2018-09-25T05:18:53.066Z,4.67
2018-09-25T05:24:09.884Z,3.97
2018-09-25T05:26:43.678Z,4.27
2018-09-25T05:29:17.316Z,3.70
2018-09-25T05:31:51.004Z,3.33
2018-09-25T05:34:24.660Z,3.20
2018-09-25T05:36:58.125Z,4.73
2018-09-25T05:39:32.154Z,3.30
2018-09-25T05:42:05.687Z,3.73
2018-09-25T05:44:39.315Z,3.57
2018-09-25T05:47:12.838Z,3.63
2018-09-25T05:49:46.556Z,3.97
2018-09-25T05:52:20.311Z,3.83
2018-09-25T05:54:53.847Z,4.63
2018-09-25T05:57:27.375Z,5.10
2018-09-25T06:00:00.939Z,6.33
2018-09-25T06:02:34.446Z,11.43
2018-09-25T06:05:08.211Z,6.67
2018-09-25T06:07:41.923Z,18.93
2018-09-25T06:10:15.519Z,18.50
2018-09-25T06:12:49.255Z,12.17
2018-09-25T06:15:22.712Z,7.03
2018-09-25T06:17:56.267Z,12.60
2018-09-25T06:20:29.903Z,9.30
2018-09-25T06:23:03.495Z,15.57
2018-09-25T06:25:37.214Z,9.00
2018-09-25T06:28:10.780Z,7.00
2018-09-25T06:30:44.507Z,6.17
2018-09-25T06:33:18.130Z,5.00
2018-09-25T06:35:51.828Z,4.40
2018-09-25T06:38:25.463Z,3.80
2018-09-25T06:40:59.222Z,4.33
2018-09-25T06:43:32.922Z,3.73
2018-09-25T06:46:06.821Z,4.00
2018-09-25T06:48:40.523Z,3.90
2018-09-25T06:51:14.098Z,4.20
2018-09-25T06:53:47.719Z,3.53
2018-09-25T06:56:21.947Z,3.40
2018-09-25T06:58:55.511Z,2.67
2018-09-25T07:01:29.791Z,2.67
2018-09-25T07:04:03.557Z,3.23
2018-09-25T07:06:37.331Z,2.63
2018-09-25T07:09:12.510Z,2.63
2018-09-25T07:11:46.307Z,3.30
2018-09-25T07:14:20.059Z,2.00
2018-09-25T07:16:53.835Z,3.10
2018-09-25T07:19:27.470Z,2.50
2018-09-25T07:22:01.139Z,2.83
2018-09-25T07:24:34.939Z,1.60
2018-09-25T07:27:08.606Z,1.90
2018-09-25T07:29:42.207Z,1.43
2018-09-25T07:32:15.852Z,2.23
2018-09-25T07:34:49.574Z,1.73
2018-09-25T07:37:23.242Z,1.60
2018-09-25T07:39:57.851Z,1.30
2018-09-25T07:42:31.467Z,1.17
2018-09-25T07:45:05.158Z,1.90
2018-09-25T07:47:38.903Z,1.80
2018-09-25T07:50:12.592Z,2.20
2018-09-25T07:52:46.264Z,1.90
2018-09-25T07:55:20.031Z,2.10
2018-09-25T07:57:53.767Z,1.47
2018-09-25T08:00:27.476Z,2.90
2018-09-25T08:03:01.109Z,1.50
2018-09-25T08:05:34.703Z,1.60
2018-09-25T08:08:08.245Z,1.50
2018-09-25T08:10:41.739Z,2.27
2018-09-25T08:13:15.407Z,1.67
2018-09-25T08:15:49.184Z,4.40
2018-09-25T08:18:22.919Z,1.70
2018-09-25T08:20:56.423Z,1.47
2018-09-25T08:23:30.102Z,1.63
2018-09-25T08:26:03.634Z,1.90
2018-09-25T08:28:37.183Z,1.93
2018-09-25T08:31:10.875Z,1.60
2018-09-25T08:33:44.643Z,1.40
2018-09-25T08:36:18.371Z,1.23
2018-09-25T08:38:52.267Z,1.80
2018-09-25T08:41:25.796Z,1.70
2018-09-25T08:43:59.802Z,1.00
2018-09-25T08:46:33.299Z,1.90
2018-09-25T08:49:06.895Z,1.30
2018-09-25T08:51:40.496Z,2.17
2018-09-25T08:54:14.068Z,1.50
2018-09-25T08:56:47.687Z,2.37
2018-09-25T08:59:21.399Z,2.17
2018-09-25T09:01:55.112Z,2.30
2018-09-25T09:04:28.844Z,1.40
2018-09-25T09:07:02.396Z,1.73
2018-09-25T09:09:35.948Z,1.50
2018-09-25T09:12:09.395Z,1.93
2018-09-25T09:14:43.052Z,0.60
2018-09-25T09:17:16.557Z,1.00
2018-09-25T09:19:50.485Z,1.43
2018-09-25T09:22:23.886Z,1.20
2018-09-25T09:24:57.596Z,1.10
2018-09-25T09:27:31.327Z,1.10
2018-09-25T09:30:05.039Z,1.10
2018-09-25T09:32:38.590Z,1.40
2018-09-25T09:35:12.279Z,2.23
2018-09-25T09:37:45.939Z,1.20
2018-09-25T09:40:19.512Z,1.10
2018-09-25T09:42:52.979Z,1.33
2018-09-25T09:45:26.675Z,1.37
2018-09-25T09:48:00.156Z,0.93
2018-09-25T09:50:33.986Z,1.93
2018-09-25T09:53:07.600Z,1.33
2018-09-25T09:55:41.212Z,1.40
2018-09-25T09:58:15.218Z,1.03
2018-09-25T10:00:48.912Z,1.97
2018-09-25T10:03:22.671Z,1.30
2018-09-25T10:05:56.567Z,1.47
2018-09-25T10:08:30.302Z,1.63
2018-09-25T10:11:03.854Z,1.30
2018-09-25T10:13:37.420Z,1.23
2018-09-25T10:16:11.039Z,1.30
2018-09-25T10:18:44.691Z,1.87
2018-09-25T10:21:18.367Z,1.20
2018-09-25T10:23:52.431Z,1.27
2018-09-25T10:26:26.127Z,1.20
2018-09-25T10:28:59.868Z,1.27
2018-09-25T10:31:33.663Z,1.97
2018-09-25T10:34:07.248Z,1.30
2018-09-25T10:36:40.943Z,0.97
2018-09-25T10:39:14.499Z,1.30
2018-09-25T10:41:48.053Z,0.80
2018-09-25T10:44:21.463Z,1.10
2018-09-25T10:46:55.131Z,0.90
2018-09-25T10:49:28.742Z,1.50
2018-09-25T10:52:02.540Z,1.10
2018-09-25T10:54:36.047Z,1.33
2018-09-25T10:57:09.478Z,0.90
2018-09-25T10:59:43.079Z,1.13
2018-09-25T11:02:16.655Z,1.13
2018-09-25T11:04:50.176Z,0.83
2018-09-25T11:07:23.945Z,1.20
2018-09-25T11:09:57.571Z,1.00
2018-09-25T11:12:31.159Z,0.70
2018-09-25T11:15:04.707Z,0.83
2018-09-25T11:17:38.511Z,0.90
2018-09-25T11:20:12.539Z,1.03
2018-09-25T11:22:46.182Z,1.23
2018-09-25T11:25:19.748Z,1.00
2018-09-25T11:27:53.202Z,0.70
2018-09-25T11:30:26.741Z,0.83
2018-09-25T11:33:00.504Z,0.70
2018-09-25T11:35:34.027Z,0.60
2018-09-25T11:38:07.793Z,0.97
2018-09-25T11:40:41.267Z,0.70
2018-09-25T11:43:14.726Z,0.83
2018-09-25T11:45:48.351Z,0.83
2018-09-25T11:48:22.023Z,1.30
2018-09-25T11:50:55.634Z,2.53
2018-09-25T11:53:29.299Z,1.13
2018-09-25T11:56:02.849Z,0.80
2018-09-25T11:58:36.545Z,0.90
2018-09-25T12:01:09.995Z,0.87
2018-09-25T12:03:43.794Z,0.90
2018-09-25T12:06:17.826Z,1.10
2018-09-25T12:08:51.730Z,2.70
2018-09-25T12:11:25.382Z,1.10
2018-09-25T12:13:58.851Z,0.60
2018-09-25T12:16:32.244Z,1.03
2018-09-25T12:19:05.921Z,0.90
2018-09-25T12:21:39.626Z,0.70
2018-09-25T12:24:13.437Z,0.93
2018-09-25T12:26:47.055Z,1.17
2018-09-25T12:29:20.526Z,1.03
2018-09-25T12:31:54.418Z,5.90
2018-09-25T12:34:28.327Z,0.63
2018-09-25T12:37:02.251Z,1.27
2018-09-25T12:39:36.015Z,0.90
2018-09-25T12:42:09.723Z,1.00
2018-09-25T12:44:43.392Z,1.00
2018-09-25T12:47:17.143Z,0.83
2018-09-25T12:49:51.159Z,0.93
2018-09-25T12:52:24.886Z,0.70
2018-09-25T12:54:58.332Z,1.03
2018-09-25T12:57:31.903Z,0.80
2018-09-25T13:00:05.526Z,0.80
2018-09-25T13:02:39.243Z,0.80
2018-09-25T13:05:12.875Z,1.33
2018-09-25T13:07:46.404Z,1.10
2018-09-25T13:10:20.119Z,0.90
2018-09-25T13:12:53.855Z,0.93
2018-09-25T13:15:27.479Z,0.70
2018-09-25T13:18:01.167Z,1.00
2018-09-25T13:20:34.691Z,0.70
2018-09-25T13:23:08.342Z,0.90
2018-09-25T13:25:41.770Z,0.93
2018-09-25T13:28:15.407Z,1.10
2018-09-25T13:30:49.172Z,0.80
2018-09-25T13:33:22.848Z,1.77
2018-09-25T13:35:56.335Z,1.10
2018-09-25T13:38:30.023Z,1.30
2018-09-25T13:41:03.587Z,1.20
2018-09-25T13:43:37.235Z,0.90
2018-09-25T13:46:10.911Z,0.97
2018-09-25T13:48:44.583Z,1.10
2018-09-25T13:51:18.140Z,0.90
2018-09-25T13:53:51.801Z,1.27
2018-09-25T13:56:25.332Z,1.47
2018-09-25T13:58:58.851Z,1.50
2018-09-25T14:01:32.491Z,2.37
2018-09-25T14:04:06.187Z,0.87
2018-09-25T14:06:39.827Z,1.17
2018-09-25T14:09:14.591Z,1.10
2018-09-25T14:11:48.510Z,1.17
2018-09-25T14:14:21.955Z,0.80
2018-09-25T14:16:55.687Z,1.20
2018-09-25T14:19:29.259Z,1.50
2018-09-25T14:22:02.979Z,1.00
2018-09-25T14:24:36.691Z,0.90
2018-09-25T14:27:10.163Z,1.00
2018-09-25T14:29:43.750Z,0.90
2018-09-25T14:32:17.443Z,0.80
2018-09-25T14:34:51.022Z,1.20
2018-09-25T14:37:24.602Z,1.63
2018-09-25T14:39:58.301Z,1.30
2018-09-25T14:42:31.990Z,1.13
2018-09-25T14:45:05.681Z,1.30
2018-09-25T14:47:39.166Z,1.23
2018-09-25T14:50:12.912Z,1.30
2018-09-25T14:52:46.584Z,1.80
2018-09-25T14:55:20.286Z,0.83
2018-09-25T14:57:53.876Z,0.67
2018-09-25T15:00:27.398Z,1.20
2018-09-25T15:03:01.230Z,1.00
2018-09-25T15:05:34.883Z,1.30
2018-09-25T15:08:08.515Z,0.87
2018-09-25T15:10:42.257Z,1.37
2018-09-25T15:13:15.910Z,1.40
2018-09-25T15:15:49.595Z,1.43
2018-09-25T15:18:23.067Z,1.43
2018-09-25T15:20:56.568Z,1.10
2018-09-25T15:23:30.331Z,0.87
2018-09-25T15:26:04.021Z,0.90
2018-09-25T15:28:37.717Z,1.50
2018-09-25T15:31:11.521Z,1.10
2018-09-25T15:33:45.043Z,1.23
2018-09-25T15:36:18.623Z,0.90
2018-09-25T15:38:52.129Z,1.37
2018-09-25T15:41:25.668Z,1.47
2018-09-25T15:43:59.407Z,1.73
2018-09-25T15:46:33.039Z,0.90
2018-09-25T15:49:06.678Z,1.50
2018-09-25T15:51:40.200Z,1.40
2018-09-25T15:54:13.946Z,1.50
2018-09-25T15:56:47.627Z,1.00
2018-09-25T15:59:21.447Z,1.47
2018-09-25T16:01:55.087Z,1.77
2018-09-25T16:04:28.737Z,1.63
2018-09-25T16:07:02.672Z,1.20
2018-09-25T16:09:36.323Z,0.90
2018-09-25T16:12:09.930Z,1.20
2018-09-25T16:14:43.640Z,0.70
2018-09-25T16:17:17.191Z,1.20
2018-09-25T16:19:50.863Z,1.40
2018-09-25T16:22:24.495Z,1.00
2018-09-25T16:24:57.967Z,1.37
2018-09-25T16:27:31.647Z,1.13
2018-09-25T16:30:05.622Z,1.20
2018-09-25T16:32:39.163Z,1.10
2018-09-25T16:35:12.899Z,1.20
2018-09-25T16:37:46.599Z,1.30
2018-09-25T16:40:20.263Z,1.10
2018-09-25T16:42:53.874Z,1.10
2018-09-25T16:45:27.402Z,1.23
2018-09-25T16:48:01.132Z,1.17
2018-09-25T16:50:34.891Z,1.20
2018-09-25T16:53:08.419Z,1.37
2018-09-25T16:55:42.087Z,1.20
2018-09-25T16:58:15.647Z,1.77
2018-09-25T17:00:49.347Z,1.17
2018-09-25T17:03:22.936Z,1.23
2018-09-25T17:05:56.685Z,1.37
2018-09-25T17:08:30.083Z,1.03
2018-09-25T17:11:03.823Z,1.37
2018-09-25T17:13:37.391Z,1.43
2018-09-25T17:16:10.967Z,1.33
2018-09-25T17:18:44.523Z,1.33
2018-09-25T17:21:18.147Z,1.20
2018-09-25T17:23:51.716Z,1.30
2018-09-25T17:26:25.420Z,1.30
2018-09-25T17:28:59.356Z,1.20
2018-09-25T17:31:33.000Z,1.37
2018-09-25T17:34:06.571Z,1.40
2018-09-25T17:36:40.171Z,1.30
2018-09-25T17:39:14.478Z,2.10
2018-09-25T17:41:48.579Z,1.90
2018-09-25T17:44:22.239Z,1.40
2018-09-25T17:46:55.884Z,2.33
2018-09-25T17:49:29.472Z,2.03
2018-09-25T17:52:03.228Z,1.83
2018-09-25T17:54:36.678Z,2.17
2018-09-25T17:57:10.290Z,1.93
2018-09-25T17:59:44.183Z,2.70
2018-09-25T18:02:17.794Z,1.70
2018-09-25T18:04:51.371Z,2.00
2018-09-25T18:07:24.927Z,1.60
2018-09-25T18:09:58.566Z,1.80
2018-09-25T18:12:32.475Z,1.60
2018-09-25T18:15:06.268Z,2.20
2018-09-25T18:17:39.864Z,2.57
2018-09-25T18:20:13.387Z,2.50
2018-09-25T18:22:47.058Z,1.93
2018-09-25T18:25:20.723Z,2.13
2018-09-25T18:27:54.554Z,2.37
2018-09-25T18:30:28.228Z,1.90
2018-09-25T18:33:01.848Z,1.57
2018-09-25T18:35:35.755Z,2.23
2018-09-25T18:38:09.337Z,2.10
2018-09-25T18:40:42.925Z,1.70
2018-09-25T18:43:16.496Z,2.80
2018-09-25T18:45:50.173Z,2.23
2018-09-25T18:48:23.955Z,2.50
2018-09-25T18:50:57.682Z,2.83
2018-09-25T18:53:31.368Z,3.63
2018-09-25T18:56:05.031Z,3.23
2018-09-25T18:58:38.710Z,2.60
2018-09-25T19:01:12.573Z,2.47
2018-09-25T19:03:46.344Z,2.30
2018-09-25T19:06:20.004Z,3.23
2018-09-25T19:08:53.543Z,1.67
2018-09-25T19:11:27.211Z,2.43
2018-09-25T19:14:00.627Z,2.63
2018-09-25T19:16:34.589Z,3.03
2018-09-25T19:19:08.151Z,2.87
2018-09-25T19:21:41.910Z,2.13
2018-09-25T19:24:15.354Z,2.33
2018-09-25T19:26:49.064Z,2.17
2018-09-25T19:29:22.669Z,2.03
2018-09-25T19:31:56.240Z,1.97
2018-09-25T19:34:29.870Z,1.30
2018-09-25T19:37:03.591Z,1.43
2018-09-25T19:39:37.456Z,1.83
2018-09-25T19:42:11.095Z,1.90
2018-09-25T19:44:44.809Z,2.10
2018-09-25T19:47:18.227Z,2.67
2018-09-25T19:49:51.766Z,2.63
2018-09-25T19:52:25.368Z,1.97
2018-09-25T19:54:59.068Z,2.80
2018-09-25T19:57:32.995Z,2.40
2018-09-25T20:00:06.643Z,1.80
2018-09-25T20:02:40.323Z,1.83
2018-09-25T20:05:14.023Z,2.30
2018-09-25T20:07:47.579Z,2.10
2018-09-25T20:10:21.156Z,1.97
2018-09-25T20:12:54.954Z,2.43
2018-09-25T20:15:28.492Z,2.13
2018-09-25T20:18:02.000Z,1.93
2018-09-25T20:20:35.562Z,1.97
2018-09-25T20:23:09.177Z,1.60
2018-09-25T20:25:42.760Z,1.93
2018-09-25T20:28:16.468Z,1.50
2018-09-25T20:30:50.059Z,1.87
2018-09-25T20:33:23.683Z,2.33
2018-09-25T20:35:57.363Z,3.40
2018-09-25T20:38:30.975Z,1.80
2018-09-25T20:41:04.829Z,2.00
2018-09-25T20:43:38.579Z,1.70
2018-09-25T20:46:12.312Z,2.03
2018-09-25T20:48:46.094Z,1.40
2018-09-25T20:51:19.795Z,1.90
2018-09-25T20:53:53.518Z,1.57
2018-09-25T20:56:27.076Z,1.70
2018-09-25T20:59:00.752Z,2.20
2018-09-25T21:01:34.286Z,2.67
2018-09-25T21:04:08.109Z,1.63
2018-09-25T21:06:41.727Z,1.50
2018-09-25T21:09:15.344Z,2.23
2018-09-25T21:11:48.890Z,1.70
2018-09-25T21:14:22.571Z,1.77
2018-09-25T21:16:56.186Z,2.20
2018-09-25T21:19:29.895Z,1.30
2018-09-25T21:22:03.610Z,1.93
2018-09-25T21:24:37.436Z,1.47
2018-09-25T21:27:11.298Z,1.87
2018-09-25T21:29:44.996Z,1.50
2018-09-25T21:32:18.700Z,2.10
2018-09-25T21:34:52.092Z,1.87
2018-09-25T21:37:25.567Z,1.70
2018-09-25T21:39:59.627Z,1.57
2018-09-25T21:42:33.291Z,2.23
2018-09-25T21:45:06.973Z,1.90
2018-09-25T21:47:40.583Z,1.97
2018-09-25T21:50:14.329Z,1.90
2018-09-25T21:52:47.836Z,2.13
2018-09-25T21:55:21.476Z,2.20
2018-09-25T21:57:55.499Z,1.50
2018-09-25T22:00:28.908Z,1.47
2018-09-25T22:03:02.494Z,1.53
2018-09-25T22:05:36.039Z,1.83
2018-09-25T22:08:09.703Z,2.40
2018-09-25T22:10:43.447Z,2.10
2018-09-25T22:13:16.873Z,1.63
2018-09-25T22:15:50.536Z,1.47
2018-09-25T22:18:24.165Z,2.10
2018-09-25T22:20:57.814Z,1.83
2018-09-25T22:23:31.414Z,1.67
2018-09-25T22:26:04.859Z,1.93
2018-09-25T22:28:38.711Z,1.50
2018-09-25T22:31:12.447Z,1.87
2018-09-25T22:33:46.452Z,1.60
2018-09-25T22:36:20.193Z,1.43
2018-09-25T22:38:53.885Z,1.57
2018-09-25T22:41:27.586Z,1.77
2018-09-25T22:44:01.379Z,2.40
2018-09-25T22:46:35.172Z,1.63
2018-09-25T22:49:08.758Z,1.30
2018-09-25T22:51:42.475Z,1.83
2018-09-25T22:54:16.123Z,1.80
2018-09-25T22:56:49.558Z,1.50
2018-09-25T22:59:23.203Z,1.70
2018-09-25T23:01:56.821Z,1.50
2018-09-25T23:04:30.402Z,1.10
2018-09-25T23:07:03.874Z,1.53
2018-09-25T23:09:37.570Z,1.47
2018-09-25T23:12:11.783Z,1.03
2018-09-25T23:14:45.963Z,1.23
2018-09-25T23:17:19.587Z,1.37
2018-09-25T23:19:53.503Z,1.13
2018-09-25T23:22:27.108Z,1.67
2018-09-25T23:25:00.860Z,1.53
2018-09-25T23:27:34.475Z,1.67
2018-09-25T23:30:08.327Z,1.00
2018-09-25T23:32:42.055Z,1.33
2018-09-25T23:35:16.095Z,1.67
2018-09-25T23:37:49.814Z,1.27
2018-09-25T23:41:26.182Z,1.40
2018-09-25T23:44:16.859Z,1.60
2018-09-25T23:46:49.520Z,1.30
2018-09-25T23:49:21.866Z,1.10
2018-09-25T23:51:58.339Z,1.27
2018-09-25T23:54:31.192Z,1.30
2018-09-25T23:57:04.768Z,1.50
2018-09-25T23:59:36.411Z,1.20
